05PS weather

Mills Brothers Airport
Burnt Cabins, Pennsylvania, United States

Public forecast

Using degrees Fahrenheit for public forecast. Weather courtesy of forecast.io.

Closest aviation weather report (METAR) to Mills Brothers Airport

Closest report is Altoona Blair County Airport, 22.9 nm (42.5 km) WNW. Retrieved 2020/05/26 20:53 UTC (11 minutes ago):

KAOO 262053Z AUTO 15009G16KT 10SM FEW055 29/16 A3016 RMK AO2 SLP205 T02890156 56012

Closest aviation forecast (TAF) to Mills Brothers Airport

Closest forecast is Altoona Blair County Airport, 22.9 nm (42.5 km) WNW. Retrieved 2020/05/26 18:22 UTC (3 hours ago):

TAF KAOO 261720Z 2618/2718 15005KT P6SM SKC FM270600 00000KT 6SM BR OVC120 FM271000 14002KT 6SM BR OVC019 FM271200 16004KT P6SM OVC015